Time;durP1;ratioP1;P1;durP2;ratioP2;P2;SDS_P1;SDS_P2;PMS_P1;PMS_P2;Temp;Humidity;BMP_temperature;BMP_pressure;BME280_temperature;BME280_humidity;BME280_pressure;Samples;Min_cycle;Max_cycle;Signal;HPM_P1;HPM_P2
2022/10/17 00:00:59;;;;;;;20.13;15.50;;;14.10;99.90;;;;;;5038113;28;20233;-77
2022/10/17 00:03:27;;;;;;;20.10;14.67;;;14.10;99.90;;;;;;5038549;28;20215;-77
2022/10/17 00:05:55;;;;;;;24.60;16.10;;;14.10;99.90;;;;;;5037367;28;20319;-77
2022/10/17 00:08:24;;;;;;;28.50;16.23;;;14.10;99.90;;;;;;5030849;28;20210;-79
2022/10/17 00:11:00;;;;;;;28.97;16.43;;;14.10;99.90;;;;;;5038771;28;20212;-77
2022/10/17 00:13:27;;;;;;;21.23;15.77;;;14.10;99.90;;;;;;5037021;28;20295;-76
2022/10/17 00:15:54;;;;;;;26.57;16.73;;;14.10;99.90;;;;;;5037278;28;20206;-77
2022/10/17 00:18:21;;;;;;;22.80;15.90;;;14.00;99.90;;;;;;5040712;28;20613;-79
2022/10/17 00:20:48;;;;;;;23.80;15.10;;;14.00;99.90;;;;;;5035006;28;20261;-77
2022/10/17 00:23:15;;;;;;;26.67;16.63;;;14.30;99.90;;;;;;5038395;28;20722;-78
2022/10/17 00:25:42;;;;;;;29.17;17.17;;;14.00;99.90;;;;;;5038005;28;20284;-77
2022/10/17 00:28:11;;;;;;;27.70;16.33;;;14.00;99.90;;;;;;5040102;28;20408;-77
2022/10/17 00:30:38;;;;;;;24.60;16.10;;;14.00;99.90;;;;;;5039300;28;20209;-78
2022/10/17 00:33:06;;;;;;;23.67;15.90;;;13.90;99.90;;;;;;5040487;28;20219;-77
2022/10/17 00:35:39;;;;;;;27.03;16.33;;;13.80;99.90;;;;;;5019559;28;20653;-77
2022/10/17 00:38:06;;;;;;;24.13;16.00;;;13.90;99.90;;;;;;5027673;28;20265;-77
2022/10/17 00:40:32;;;;;;;25.80;17.60;;;13.80;99.90;;;;;;5041917;28;20280;-77
2022/10/17 00:43:02;;;;;;;24.97;16.47;;;14.10;99.90;;;;;;5042135;28;20284;-77
2022/10/17 00:45:36;;;;;;;27.20;19.00;;;13.80;99.90;;;;;;5041766;28;20205;-76
2022/10/17 00:48:07;;;;;;;25.13;17.13;;;13.80;99.90;;;;;;5039009;28;20423;-76
2022/10/17 00:50:37;;;;;;;24.30;17.07;;;13.80;99.90;;;;;;5040953;28;20225;-77
2022/10/17 00:53:06;;;;;;;28.23;17.33;;;13.70;99.90;;;;;;5038958;28;20236;-77
2022/10/17 00:55:41;;;;;;;30.20;17.53;;;13.70;99.90;;;;;;5039261;28;20288;-76
2022/10/17 00:58:08;;;;;;;25.03;18.13;;;13.70;99.90;;;;;;5025535;28;20204;-77
2022/10/17 01:00:35;;;;;;;27.47;18.03;;;13.60;99.90;;;;;;5021980;28;20312;-78
2022/10/17 01:03:03;;;;;;;28.27;17.70;;;13.70;99.90;;;;;;5035398;28;20260;-77
2022/10/17 01:05:29;;;;;;;27.60;18.97;;;13.70;99.90;;;;;;5035585;28;20297;-75
2022/10/17 01:07:56;;;;;;;28.10;19.03;;;13.00;99.90;;;;;;5027896;28;20202;-75
2022/10/17 01:10:34;;;;;;;28.83;19.40;;;13.60;99.90;;;;;;5030461;28;20744;-76
2022/10/17 01:13:17;;;;;;;27.70;18.47;;;13.60;99.90;;;;;;5040750;28;20192;-77
2022/10/17 01:16:15;;;;;;;29.60;18.83;;;13.60;99.90;;;;;;5023418;28;20288;-78
2022/10/17 01:18:47;;;;;;;26.13;17.53;;;13.60;99.90;;;;;;5038144;28;20682;-79
2022/10/17 01:21:36;;;;;;;29.73;20.07;;;13.60;99.90;;;;;;5046018;28;20248;-76
2022/10/17 01:24:15;;;;;;;29.67;18.10;;;13.60;99.90;;;;;;5018538;28;20209;-77
2022/10/17 01:27:35;;;;;;;32.47;20.30;;;13.60;99.90;;;;;;5037807;28;20327;-76
2022/10/17 01:30:29;;;;;;;34.33;20.03;;;13.60;99.90;;;;;;4964231;28;20200;-77
2022/10/17 01:32:57;;;;;;;33.80;20.87;;;13.60;99.90;;;;;;5025098;28;20250;-76
2022/10/17 01:35:30;;;;;;;32.07;20.93;;;13.70;99.90;;;;;;5033143;28;20353;-76
2022/10/17 01:38:29;;;;;;;31.47;20.23;;;13.70;99.90;;;;;;5035035;28;20209;-77
2022/10/17 01:41:05;;;;;;;33.20;20.17;;;13.70;99.90;;;;;;5038613;28;20205;-77
2022/10/17 01:43:42;;;;;;;31.87;20.97;;;13.70;99.90;;;;;;5037142;28;20201;-77
2022/10/17 01:46:33;;;;;;;38.97;21.60;;;13.70;99.90;;;;;;5017095;28;20614;-77
2022/10/17 01:49:01;;;;;;;34.03;22.07;;;13.70;99.90;;;;;;5036961;28;20577;-76
2022/10/17 01:51:39;;;;;;;38.13;23.60;;;13.70;99.90;;;;;;5037473;28;20661;-76
2022/10/17 01:54:15;;;;;;;40.37;23.17;;;13.70;99.90;;;;;;5038801;28;20517;-76
2022/10/17 01:56:44;;;;;;;36.20;21.83;;;13.70;99.90;;;;;;5045991;28;20193;-76
2022/10/17 01:59:22;;;;;;;37.27;23.37;;;14.20;99.90;;;;;;5041754;28;20209;-77
2022/10/17 02:01:52;;;;;;;32.73;21.63;;;13.80;99.90;;;;;;5043821;28;20243;-77
2022/10/17 02:04:19;;;;;;;33.77;21.73;;;13.80;99.90;;;;;;5048690;28;20239;-76
2022/10/17 02:07:05;;;;;;;35.50;21.30;;;13.80;99.90;;;;;;5026520;28;20277;-77
2022/10/17 02:09:32;;;;;;;34.10;21.67;;;13.30;99.90;;;;;;5051703;28;20204;-76
2022/10/17 02:12:15;;;;;;;30.67;20.47;;;13.80;99.90;;;;;;5034940;28;20621;-77
2022/10/17 02:14:41;;;;;;;34.27;21.67;;;13.80;99.90;;;;;;5047751;28;20237;-77
2022/10/17 02:17:22;;;;;;;31.13;20.40;;;13.80;99.90;;;;;;5044639;28;20554;-76
2022/10/17 02:20:12;;;;;;;32.10;20.10;;;13.80;99.90;;;;;;5039893;28;20253;-76
2022/10/17 02:22:59;;;;;;;34.33;21.83;;;13.80;99.90;;;;;;5047434;28;20222;-77
2022/10/17 02:25:25;;;;;;;36.77;20.97;;;13.80;99.90;;;;;;5041970;28;20201;-77
2022/10/17 02:28:04;;;;;;;31.43;20.90;;;13.90;99.90;;;;;;5045234;28;20291;-76
2022/10/17 02:30:48;;;;;;;34.43;20.10;;;13.80;99.90;;;;;;5037789;28;20651;-77
2022/10/17 02:33:41;;;;;;;35.93;21.57;;;13.80;99.90;;;;;;5043204;28;20279;-78
2022/10/17 02:36:21;;;;;;;37.30;21.53;;;13.80;99.90;;;;;;5040826;28;20666;-77
2022/10/17 02:38:50;;;;;;;43.07;23.20;;;13.80;99.90;;;;;;5042275;28;20205;-78
2022/10/17 02:41:18;;;;;;;37.67;22.93;;;13.80;99.90;;;;;;5045489;28;20235;-76
2022/10/17 02:43:49;;;;;;;36.17;21.97;;;13.80;99.90;;;;;;5039818;28;20237;-77
2022/10/17 02:46:20;;;;;;;35.13;23.00;;;13.80;99.90;;;;;;5041343;28;20288;-79
2022/10/17 02:49:07;;;;;;;35.70;21.77;;;13.80;99.90;;;;;;5020099;28;20198;-76
2022/10/17 02:52:05;;;;;;;36.93;21.17;;;13.80;99.90;;;;;;5044206;28;20260;-77
2022/10/17 02:54:46;;;;;;;35.47;21.60;;;13.80;99.90;;;;;;5043240;28;20332;-76
2022/10/17 02:57:25;;;;;;;32.87;20.17;;;13.80;99.90;;;;;;5040462;28;20588;-76
2022/10/17 02:59:54;;;;;;;38.83;22.97;;;13.80;99.90;;;;;;5047605;28;20222;-78
2022/10/17 03:02:20;;;;;;;37.87;22.73;;;13.80;99.90;;;;;;5022206;28;20252;-77
2022/10/17 03:04:47;;;;;;;42.13;23.80;;;13.70;99.90;;;;;;5028305;28;20295;-78
2022/10/17 03:07:14;;;;;;;35.57;20.80;;;13.80;99.90;;;;;;5002735;28;20659;-80
2022/10/17 03:09:41;;;;;;;34.27;21.90;;;13.80;99.90;;;;;;5034739;28;20276;-77
2022/10/17 03:12:08;;;;;;;34.67;20.90;;;13.80;99.90;;;;;;5029773;28;20695;-77
2022/10/17 03:14:35;;;;;;;41.83;21.43;;;13.90;99.90;;;;;;5037592;28;20201;-77
2022/10/17 03:17:02;;;;;;;43.53;24.27;;;13.80;99.90;;;;;;5042607;28;20268;-78
2022/10/17 03:19:28;;;;;;;36.33;20.87;;;13.80;99.90;;;;;;5038350;28;20273;-77
2022/10/17 03:21:55;;;;;;;42.70;23.17;;;13.80;99.90;;;;;;5046813;28;20714;-78
2022/10/17 03:24:22;;;;;;;41.23;22.83;;;13.90;99.90;;;;;;5039925;28;20237;-77
2022/10/17 03:26:49;;;;;;;45.17;24.73;;;13.90;99.90;;;;;;5041818;28;20292;-76
2022/10/17 03:29:16;;;;;;;41.13;24.20;;;13.80;99.90;;;;;;5042042;28;20201;-78
2022/10/17 03:31:43;;;;;;;45.47;24.80;;;14.00;99.90;;;;;;5042502;28;20646;-78
2022/10/17 03:34:09;;;;;;;47.73;25.60;;;14.30;99.90;;;;;;5044664;28;20225;-78
2022/10/17 03:36:36;;;;;;;40.97;24.40;;;13.70;99.90;;;;;;5019972;28;20237;-76
2022/10/17 03:39:03;;;;;;;43.63;25.03;;;15.00;99.90;;;;;;5036399;28;20285;-77
2022/10/17 03:41:30;;;;;;;51.07;25.67;;;14.30;99.90;;;;;;5038921;28;20345;-77
2022/10/17 03:43:56;;;;;;;42.97;24.77;;;14.10;99.90;;;;;;5040813;28;20558;-76
2022/10/17 03:46:23;;;;;;;46.00;25.40;;;14.10;99.90;;;;;;5037526;28;20605;-77
2022/10/17 03:48:50;;;;;;;50.07;26.13;;;14.00;99.90;;;;;;5036862;28;20202;-78
2022/10/17 03:51:17;;;;;;;42.53;23.90;;;14.20;99.90;;;;;;5028544;28;20287;-77
2022/10/17 03:53:44;;;;;;;44.70;23.53;;;14.20;99.90;;;;;;5038053;28;20643;-76
2022/10/17 03:56:22;;;;;;;41.87;24.57;;;14.30;99.90;;;;;;5035602;28;20198;-77
2022/10/17 03:58:49;;;;;;;38.40;24.03;;;15.00;99.90;;;;;;5039545;28;20201;-77
2022/10/17 04:01:17;;;;;;;50.87;24.97;;;13.60;99.90;;;;;;5041180;28;20197;-78
2022/10/17 04:03:48;;;;;;;47.47;26.13;;;14.20;99.90;;;;;;5035358;28;20240;-77
2022/10/17 04:06:15;;;;;;;42.83;23.27;;;13.90;99.90;;;;;;5039511;28;20709;-76
2022/10/17 04:08:42;;;;;;;44.17;23.87;;;14.30;99.90;;;;;;5042843;28;20250;-77
2022/10/17 04:11:14;;;;;;;49.33;23.43;;;14.30;99.90;;;;;;5034273;28;20190;-76
2022/10/17 04:13:41;;;;;;;39.13;22.13;;;14.30;99.90;;;;;;5039207;28;20201;-77
2022/10/17 04:16:16;;;;;;;40.43;22.53;;;14.40;99.90;;;;;;5035092;28;20230;-77
2022/10/17 04:18:43;;;;;;;39.70;22.43;;;14.40;99.90;;;;;;5038244;28;20266;-78
2022/10/17 04:21:12;;;;;;;42.53;23.93;;;14.20;99.90;;;;;;5028891;28;20194;-77
2022/10/17 04:23:38;;;;;;;42.53;23.23;;;14.40;99.90;;;;;;5034534;28;20321;-76
2022/10/17 04:26:06;;;;;;;43.60;23.53;;;14.30;99.90;;;;;;5037663;28;20224;-77
2022/10/17 04:28:33;;;;;;;51.20;25.40;;;14.40;99.90;;;;;;5019781;28;20237;-77
2022/10/17 04:31:03;;;;;;;40.93;22.50;;;14.50;99.90;;;;;;5037192;28;20193;-77
2022/10/17 04:33:30;;;;;;;41.80;23.43;;;14.30;99.90;;;;;;5038374;28;20688;-77
2022/10/17 04:35:59;;;;;;;43.17;24.03;;;14.50;99.90;;;;;;5019594;28;20256;-78
2022/10/17 04:38:27;;;;;;;43.23;23.37;;;14.50;99.90;;;;;;5043571;28;20279;-76
2022/10/17 04:40:57;;;;;;;41.40;23.27;;;15.10;99.90;;;;;;5040534;28;20284;-77
2022/10/17 04:43:23;;;;;;;37.60;22.47;;;14.70;99.90;;;;;;5033892;28;20313;-77
2022/10/17 04:45:50;;;;;;;47.33;23.77;;;14.70;99.90;;;;;;5039266;28;20297;-77
2022/10/17 04:48:17;;;;;;;42.17;22.73;;;14.40;99.90;;;;;;5041755;28;20634;-77
2022/10/17 04:50:54;;;;;;;45.43;24.47;;;14.60;99.90;;;;;;5034182;28;20228;-77
2022/10/17 04:53:22;;;;;;;42.97;23.77;;;15.40;99.90;;;;;;5048228;28;20284;-75
2022/10/17 04:55:48;;;;;;;41.27;23.00;;;14.60;99.90;;;;;;5035032;28;20557;-77
2022/10/17 04:58:15;;;;;;;40.87;22.53;;;14.60;99.90;;;;;;5036782;28;20220;-78
2022/10/17 05:00:42;;;;;;;43.87;23.63;;;14.20;99.90;;;;;;5046711;28;20362;-77
2022/10/17 05:03:09;;;;;;;42.77;22.20;;;14.60;99.90;;;;;;5038305;28;20229;-77
2022/10/17 05:05:37;;;;;;;40.43;23.60;;;14.70;99.90;;;;;;5040334;28;20304;-77
2022/10/17 05:08:05;;;;;;;42.63;24.23;;;15.80;99.90;;;;;;5021875;28;20193;-76
2022/10/17 05:10:38;;;;;;;42.23;22.10;;;14.60;99.90;;;;;;5037612;28;20300;-77
2022/10/17 05:13:06;;;;;;;41.30;22.33;;;15.00;99.90;;;;;;5032387;28;20197;-76
2022/10/17 05:15:33;;;;;;;40.60;21.33;;;14.70;99.90;;;;;;5039512;28;20217;-77
2022/10/17 05:18:00;;;;;;;41.97;21.93;;;15.00;99.90;;;;;;5037721;28;20202;-76
2022/10/17 05:20:27;;;;;;;44.17;22.83;;;15.40;99.90;;;;;;5036119;28;20301;-77
2022/10/17 05:22:54;;;;;;;39.40;21.80;;;15.00;99.90;;;;;;5044553;28;20316;-79
2022/10/17 05:25:21;;;;;;;36.93;20.37;;;14.90;99.90;;;;;;5034520;28;20267;-76
2022/10/17 05:27:48;;;;;;;44.07;22.30;;;16.00;99.90;;;;;;5042038;28;20205;-77
2022/10/17 05:30:15;;;;;;;37.90;21.07;;;15.40;99.90;;;;;;5042859;28;20208;-77
2022/10/17 05:32:41;;;;;;;35.80;19.73;;;14.90;99.90;;;;;;5049364;28;20205;-77
2022/10/17 05:35:08;;;;;;;34.87;19.20;;;14.70;99.90;;;;;;5031732;28;20229;-77
2022/10/17 05:37:35;;;;;;;33.03;19.27;;;16.20;99.90;;;;;;5036632;28;20206;-78
2022/10/17 05:40:03;;;;;;;34.47;19.47;;;14.70;99.90;;;;;;5041554;28;20205;-77
2022/10/17 05:42:30;;;;;;;34.27;19.90;;;15.30;99.90;;;;;;5039900;28;20224;-77
2022/10/17 05:44:57;;;;;;;33.43;20.13;;;15.30;99.90;;;;;;5026075;28;20205;-76
2022/10/17 05:47:24;;;;;;;39.67;20.13;;;16.50;99.90;;;;;;5024974;28;20280;-75
2022/10/17 05:49:51;;;;;;;36.40;21.55;;;15.20;99.90;;;;;;5041321;28;20459;-77
2022/10/17 05:52:18;;;;;;;37.40;20.80;;;14.80;99.90;;;;;;5038307;28;20252;-75
2022/10/17 05:54:45;;;;;;;34.57;20.30;;;15.20;99.90;;;;;;5041026;28;20691;-76
2022/10/17 05:57:12;;;;;;;34.20;19.57;;;15.20;99.90;;;;;;5042842;28;20901;-76
2022/10/17 05:59:39;;;;;;;33.23;18.93;;;15.30;99.90;;;;;;5038111;28;20268;-76
2022/10/17 06:02:06;;;;;;;34.70;18.27;;;15.30;99.90;;;;;;5040764;28;20491;-75
2022/10/17 06:04:33;;;;;;;33.40;18.40;;;15.30;99.90;;;;;;5040806;28;20225;-75
2022/10/17 06:06:59;;;;;;;32.57;18.17;;;15.40;99.90;;;;;;5039098;28;20682;-78
2022/10/17 06:09:27;;;;;;;30.87;17.63;;;15.40;99.90;;;;;;5042131;28;20674;-76
2022/10/17 06:11:54;;;;;;;28.80;18.20;;;15.40;99.90;;;;;;5021292;28;20233;-75
2022/10/17 06:14:20;;;;;;;29.20;18.10;;;15.40;99.90;;;;;;5039139;28;20670;-75
2022/10/17 06:16:47;;;;;;;31.53;17.80;;;15.40;99.90;;;;;;5038508;28;20300;-77
2022/10/17 06:19:14;;;;;;;31.37;18.57;;;15.50;99.90;;;;;;5035323;28;20724;-77
2022/10/17 06:21:41;;;;;;;32.17;18.63;;;15.50;99.90;;;;;;5023760;28;20714;-76
2022/10/17 06:24:08;;;;;;;30.87;17.43;;;15.50;99.90;;;;;;5019658;28;20261;-76
2022/10/17 06:26:34;;;;;;;32.73;17.63;;;15.50;99.90;;;;;;5041406;28;20459;-76
2022/10/17 06:29:01;;;;;;;31.57;17.53;;;15.60;99.90;;;;;;5041336;28;20752;-74
2022/10/17 06:31:28;;;;;;;27.60;17.57;;;15.60;99.90;;;;;;5040125;28;20219;-77
2022/10/17 06:33:55;;;;;;;24.83;16.63;;;15.60;99.90;;;;;;5040631;28;20921;-76
2022/10/17 06:36:21;;;;;;;28.33;17.13;;;15.60;99.90;;;;;;5041087;28;20678;-76
2022/10/17 06:38:49;;;;;;;26.33;16.63;;;15.70;99.90;;;;;;5036488;28;20208;-76
2022/10/17 06:41:18;;;;;;;26.23;16.90;;;15.70;99.90;;;;;;5038416;28;20309;-77
2022/10/17 06:43:46;;;;;;;24.03;15.87;;;15.80;99.90;;;;;;5040778;28;20259;-76
2022/10/17 06:46:15;;;;;;;25.67;15.80;;;15.80;99.90;;;;;;5039037;28;20233;-77
2022/10/17 06:48:42;;;;;;;22.60;15.10;;;15.90;99.90;;;;;;5038551;28;20252;-76
2022/10/17 06:51:10;;;;;;;27.70;16.13;;;15.90;99.90;;;;;;5037162;28;20225;-75
2022/10/17 06:53:39;;;;;;;23.83;15.37;;;16.40;99.90;;;;;;5040152;28;20258;-76
2022/10/17 06:56:08;;;;;;;33.10;16.20;;;16.00;99.90;;;;;;5040437;28;20304;-75
2022/10/17 06:58:38;;;;;;;25.20;15.30;;;15.80;99.90;;;;;;5039627;28;20936;-76
2022/10/17 07:01:11;;;;;;;21.80;14.33;;;16.10;99.90;;;;;;5038809;28;20217;-76
2022/10/17 07:03:39;;;;;;;20.55;14.65;;;;;;;;;;5040753;28;20267;-76
2022/10/17 07:06:07;;;;;;;20.53;13.27;;;16.20;99.90;;;;;;5038597;28;20217;-75
2022/10/17 07:08:33;;;;;;;19.75;13.27;;;16.20;99.90;;;;;;5039298;28;20241;-75
2022/10/17 07:11:12;;;;;;;19.07;13.70;;;16.30;99.90;;;;;;5040802;28;20260;-77
2022/10/17 07:13:39;;;;;;;24.45;13.88;;;16.40;99.90;;;;;;5040872;28;20300;-77
2022/10/17 07:16:06;;;;;;;21.05;13.13;;;16.40;99.90;;;;;;5020626;28;20376;-77
2022/10/17 07:18:36;;;;;;;18.17;12.18;;;16.40;99.90;;;;;;5017467;28;20295;-75
2022/10/17 07:21:03;;;;;;;20.23;12.50;;;16.50;99.90;;;;;;5039098;28;20241;-75
2022/10/17 07:23:35;;;;;;;15.40;12.05;;;16.50;99.90;;;;;;5038039;28;20821;-76
2022/10/17 07:26:07;;;;;;;17.05;12.23;;;16.60;99.90;;;;;;5036887;28;20297;-75
2022/10/17 07:28:39;;;;;;;16.15;11.93;;;16.60;99.90;;;;;;5039425;28;20205;-75
2022/10/17 07:31:11;;;;;;;19.10;12.85;;;16.70;99.90;;;;;;5039145;28;20203;-76
2022/10/17 07:33:37;;;;;;;20.23;12.27;;;16.70;99.90;;;;;;5037406;28;20210;-75
2022/10/17 07:36:05;;;;;;;18.17;12.00;;;16.70;99.90;;;;;;5040918;28;20222;-76
2022/10/17 07:38:32;;;;;;;16.02;11.82;;;16.70;99.90;;;;;;5020657;28;20244;-76
2022/10/17 07:41:01;;;;;;;16.27;11.35;;;16.70;99.90;;;;;;5037766;28;20292;-76
2022/10/17 07:43:29;;;;;;;18.38;11.43;;;17.10;99.90;;;;;;5040260;28;20225;-76
2022/10/17 07:45:56;;;;;;;18.08;11.82;;;17.40;99.90;;;;;;5018939;28;20224;-76
2022/10/17 07:48:23;;;;;;;16.77;11.40;;;17.20;99.90;;;;;;5039240;28;20197;-76
2022/10/17 07:50:50;;;;;;;18.75;11.25;;;17.30;99.90;;;;;;5035858;28;20225;-76
2022/10/17 07:53:18;;;;;;;19.73;11.32;;;16.70;99.90;;;;;;5039495;28;20665;-76
2022/10/17 07:55:46;;;;;;;18.20;11.20;;;17.30;99.90;;;;;;5037530;28;20206;-76
2022/10/17 07:58:14;;;;;;;13.95;10.48;;;17.10;99.90;;;;;;5035556;28;20222;-76
2022/10/17 08:00:40;;;;;;;14.73;11.02;;;17.10;99.90;;;;;;5020937;28;20423;-76
2022/10/17 08:03:09;;;;;;;17.05;10.95;;;17.20;99.90;;;;;;5038758;28;20237;-76
2022/10/17 08:05:36;;;;;;;16.75;11.27;;;16.60;99.90;;;;;;5038729;28;20304;-75
2022/10/17 08:08:06;;;;;;;14.95;10.77;;;17.30;99.90;;;;;;5039370;28;20210;-75
2022/10/17 08:10:33;;;;;;;14.02;11.02;;;17.30;99.90;;;;;;5039971;28;20564;-75
2022/10/17 08:13:01;;;;;;;14.95;11.13;;;17.20;99.90;;;;;;5037876;28;20205;-76
2022/10/17 08:15:27;;;;;;;13.60;9.85;;;17.40;99.90;;;;;;5036301;28;20281;-76
2022/10/17 08:18:00;;;;;;;14.73;10.00;;;17.20;99.90;;;;;;5037438;28;20356;-76
2022/10/17 08:20:28;;;;;;;13.82;9.95;;;17.40;99.90;;;;;;5035623;28;20229;-76
2022/10/17 08:22:55;;;;;;;15.35;10.80;;;17.30;99.90;;;;;;5036423;28;20229;-75
2022/10/17 08:25:22;;;;;;;14.57;9.70;;;17.40;99.90;;;;;;5034776;28;20213;-76
2022/10/17 08:27:49;;;;;;;19.00;10.25;;;17.40;99.90;;;;;;5035421;28;20232;-76
2022/10/17 08:30:16;;;;;;;14.75;10.55;;;17.40;99.90;;;;;;5039683;28;20288;-76
2022/10/17 08:32:43;;;;;;;13.90;10.02;;;17.40;99.90;;;;;;5038234;28;20205;-75
2022/10/17 08:35:10;;;;;;;15.98;10.65;;;17.40;99.90;;;;;;5038389;28;20229;-76
2022/10/17 08:37:37;;;;;;;15.80;9.60;;;17.40;99.90;;;;;;5036111;28;20694;-76
2022/10/17 08:40:05;;;;;;;15.02;8.80;;;17.50;99.90;;;;;;5035354;28;20201;-78
2022/10/17 08:42:56;;;;;;;11.75;8.43;;;17.50;99.90;;;;;;5018553;28;20194;-77
2022/10/17 08:45:41;;;;;;;14.05;9.02;;;17.50;99.90;;;;;;5038143;28;20213;-76
2022/10/17 08:48:13;;;;;;;19.00;9.60;;;17.50;99.90;;;;;;5037487;28;20730;-75
2022/10/17 08:50:52;;;;;;;13.40;10.25;;;17.50;99.90;;;;;;5036846;28;20215;-75
2022/10/17 08:53:37;;;;;;;14.43;10.30;;;17.50;99.90;;;;;;5039476;28;20205;-77
2022/10/17 08:56:18;;;;;;;21.42;11.10;;;17.50;99.90;;;;;;5036047;28;20300;-74
2022/10/17 08:59:05;;;;;;;14.15;10.35;;;17.40;99.90;;;;;;5038022;28;20670;-75
2022/10/17 09:01:40;;;;;;;15.68;10.88;;;17.40;99.90;;;;;;5035231;28;20194;-76
2022/10/17 09:04:15;;;;;;;19.23;10.75;;;17.40;99.90;;;;;;5042011;28;20237;-75
2022/10/17 09:06:50;;;;;;;18.75;12.23;;;17.40;99.90;;;;;;5042532;28;20223;-76
2022/10/17 09:09:38;;;;;;;15.18;12.00;;;17.40;99.90;;;;;;5041200;28;21765;-76
2022/10/17 09:12:22;;;;;;;15.75;11.68;;;17.40;99.90;;;;;;5027395;28;20267;-77
2022/10/17 09:15:07;;;;;;;22.58;13.48;;;17.40;99.90;;;;;;5044190;28;20295;-76
2022/10/17 09:17:39;;;;;;;18.23;12.30;;;17.30;99.90;;;;;;5043628;28;20209;-74
2022/10/17 09:20:21;;;;;;;21.63;13.68;;;17.20;99.90;;;;;;5043612;28;20214;-77
2022/10/17 09:23:05;;;;;;;21.08;13.85;;;17.10;99.90;;;;;;5042221;28;20441;-76
2022/10/17 09:25:42;;;;;;;18.90;14.07;;;17.90;99.90;;;;;;5044876;28;20735;-74
2022/10/17 09:28:12;;;;;;;20.80;14.68;;;17.20;99.90;;;;;;5040240;28;20288;-76
2022/10/17 09:30:46;;;;;;;22.35;14.88;;;17.20;99.90;;;;;;5024288;28;20244;-76
2022/10/17 09:33:37;;;;;;;21.75;14.18;;;17.30;99.90;;;;;;5037383;28;20556;-75
2022/10/17 09:36:36;;;;;;;21.67;13.52;;;17.20;99.90;;;;;;5027380;28;20197;-76
2022/10/17 09:39:06;;;;;;;20.65;14.02;;;17.20;99.90;;;;;;5032488;28;20278;-77
2022/10/17 09:41:40;;;;;;;20.95;14.05;;;17.30;99.90;;;;;;5040700;28;20682;-75
2022/10/17 09:44:27;;;;;;;18.05;12.98;;;17.40;99.90;;;;;;5010583;28;20588;-76
2022/10/17 09:47:24;;;;;;;20.15;14.43;;;17.20;99.90;;;;;;5039667;28;20300;-76
2022/10/17 09:49:51;;;;;;;22.33;14.43;;;17.30;99.90;;;;;;5043599;28;20308;-76
2022/10/17 09:52:27;;;;;;;20.33;14.20;;;17.30;99.90;;;;;;5042395;28;20237;-76
2022/10/17 09:55:06;;;;;;;26.00;14.80;;;17.30;99.90;;;;;;5024098;28;20217;-76
2022/10/17 09:57:53;;;;;;;22.90;14.18;;;17.30;99.90;;;;;;5024145;28;20209;-76
2022/10/17 10:00:26;;;;;;;21.73;14.55;;;17.30;99.90;;;;;;5041864;28;20697;-75
2022/10/17 10:03:18;;;;;;;25.08;15.00;;;17.50;99.90;;;;;;5043331;28;20643;-76
2022/10/17 10:06:17;;;;;;;22.80;15.27;;;17.30;99.90;;;;;;5035476;28;20228;-75
2022/10/17 10:08:53;;;;;;;25.83;16.55;;;17.30;99.90;;;;;;5040189;28;20673;-76
2022/10/17 10:12:00;;;;;;;22.48;16.33;;;17.80;99.90;;;;;;5041710;28;20263;-76
2022/10/17 10:14:32;;;;;;;27.08;14.90;;;17.30;99.90;;;;;;4957321;28;20660;-77
2022/10/17 10:17:04;;;;;;;26.92;15.45;;;17.30;99.90;;;;;;5018705;28;20256;-75
2022/10/17 10:19:36;;;;;;;20.42;14.93;;;17.20;99.90;;;;;;5041133;28;20241;-75
2022/10/17 10:22:16;;;;;;;22.02;14.77;;;17.20;99.90;;;;;;5040560;28;20205;-77
2022/10/17 10:24:43;;;;;;;23.67;14.82;;;17.30;99.90;;;;;;5037181;28;20728;-75
2022/10/17 10:27:16;;;;;;;24.30;14.55;;;17.30;99.90;;;;;;5043334;28;20201;-76
2022/10/17 10:29:51;;;;;;;22.38;13.93;;;17.30;99.90;;;;;;5020678;28;20295;-76
2022/10/17 10:32:21;;;;;;;22.80;14.15;;;17.40;99.90;;;;;;5037615;28;20668;-75
2022/10/17 10:34:55;;;;;;;20.20;13.98;;;17.40;99.90;;;;;;5040880;28;20654;-76
2022/10/17 10:37:29;;;;;;;21.10;13.63;;;17.40;99.90;;;;;;5038506;28;20218;-76
2022/10/17 10:40:00;;;;;;;19.73;13.57;;;17.40;99.90;;;;;;5037335;28;20198;-75
2022/10/17 10:42:31;;;;;;;19.30;13.07;;;17.30;99.90;;;;;;5039809;28;20274;-76
2022/10/17 10:45:22;;;;;;;18.42;12.93;;;17.40;99.90;;;;;;5037411;28;20863;-76
2022/10/17 10:48:33;;;;;;;18.33;12.38;;;17.40;99.90;;;;;;5037409;28;20216;-74
2022/10/17 10:51:13;;;;;;;19.48;12.93;;;17.40;99.90;;;;;;5037601;28;20206;-75
2022/10/17 10:54:02;;;;;;;21.48;13.38;;;17.40;99.90;;;;;;5036383;28;20271;-75
2022/10/17 10:56:46;;;;;;;20.52;13.10;;;17.40;99.90;;;;;;5039642;28;20274;-75
2022/10/17 10:59:42;;;;;;;19.55;12.95;;;17.60;99.90;;;;;;5040545;28;20434;-75
2022/10/17 11:02:15;;;;;;;18.40;13.25;;;17.10;99.90;;;;;;5041495;28;20627;-75
2022/10/17 11:05:12;;;;;;;20.73;14.32;;;17.50;99.90;;;;;;5022490;28;20236;-76
2022/10/17 11:07:48;;;;;;;17.63;11.85;;;17.50;99.90;;;;;;5033609;28;20240;-75
2022/10/17 11:10:52;;;;;;;19.92;12.45;;;17.50;99.90;;;;;;5041593;28;20561;-75
2022/10/17 11:13:39;;;;;;;21.33;12.57;;;17.50;99.90;;;;;;5040004;28;20224;-77
2022/10/17 11:16:22;;;;;;;16.77;12.02;;;17.50;99.90;;;;;;5019433;28;20198;-75
2022/10/17 11:19:04;;;;;;;17.67;11.55;;;16.80;99.90;;;;;;5036072;28;20359;-75
2022/10/17 11:22:07;;;;;;;16.77;11.98;;;17.50;99.90;;;;;;5039424;28;20299;-75
2022/10/17 11:24:55;;;;;;;15.70;10.65;;;17.60;99.90;;;;;;5036244;28;20225;-75
2022/10/17 11:27:28;;;;;;;18.48;12.25;;;17.60;99.90;;;;;;5036665;28;20243;-75
2022/10/17 11:29:57;;;;;;;15.18;9.95;;;17.40;99.90;;;;;;5039267;28;20615;-76
2022/10/17 11:32:58;;;;;;;13.75;9.85;;;17.60;99.90;;;;;;5037665;28;20408;-76
2022/10/17 11:35:37;;;;;;;11.73;9.00;;;17.70;99.90;;;;;;5029327;28;20639;-75
2022/10/17 11:38:48;;;;;;;12.38;9.35;;;17.70;99.90;;;;;;5034936;28;20208;-76
2022/10/17 11:41:30;;;;;;;10.63;7.68;;;17.70;99.90;;;;;;5010324;28;20301;-76
2022/10/17 11:44:19;;;;;;;10.18;8.23;;;17.70;99.90;;;;;;5018602;28;20257;-74
2022/10/17 11:46:52;;;;;;;11.45;8.68;;;17.70;99.90;;;;;;5038282;28;20640;-76
2022/10/17 11:49:39;;;;;;;11.07;7.78;;;17.80;99.90;;;;;;5036986;28;20312;-75
2022/10/17 11:52:28;;;;;;;12.68;7.53;;;17.80;99.90;;;;;;5037374;28;20202;-75
2022/10/17 11:55:41;;;;;;;11.30;8.02;;;17.80;99.90;;;;;;5024089;28;20209;-76
2022/10/17 11:58:49;;;;;;;10.40;7.15;;;17.90;99.90;;;;;;5027610;28;20653;-78
2022/10/17 12:01:45;;;;;;;9.57;7.53;;;18.00;99.90;;;;;;5037578;28;20217;-76
2022/10/17 12:04:39;;;;;;;10.18;7.25;;;18.10;99.90;;;;;;5039343;28;20225;-75
2022/10/17 12:07:42;;;;;;;9.05;6.88;;;18.20;99.90;;;;;;5035862;28;20662;-76
2022/10/17 12:10:32;;;;;;;10.05;7.40;;;18.20;99.90;;;;;;5034958;28;20194;-75
2022/10/17 12:13:27;;;;;;;9.23;7.63;;;18.00;99.90;;;;;;5037262;28;20293;-75
2022/10/17 12:15:56;;;;;;;7.55;6.57;;;18.20;99.90;;;;;;5004371;28;20197;-76
2022/10/17 12:18:26;;;;;;;8.55;6.82;;;18.20;99.90;;;;;;5039790;28;20205;-77
2022/10/17 12:20:59;;;;;;;7.30;6.40;;;18.40;99.90;;;;;;5035181;28;20228;-75
2022/10/17 12:23:31;;;;;;;9.43;6.30;;;18.10;99.90;;;;;;5038780;28;20720;-77
2022/10/17 12:26:00;;;;;;;7.60;5.85;;;18.10;99.90;;;;;;5036916;28;20547;-76
2022/10/17 12:28:42;;;;;;;8.52;6.03;;;18.00;99.90;;;;;;5032639;28;20737;-76
2022/10/17 12:31:15;;;;;;;8.40;5.65;;;17.80;99.90;;;;;;5036231;28;20897;-75
2022/10/17 12:33:44;;;;;;;9.68;6.47;;;18.00;99.90;;;;;;5019645;28;20452;-75
2022/10/17 12:36:17;;;;;;;8.98;6.45;;;18.00;99.90;;;;;;5033439;28;20209;-75
2022/10/17 12:38:47;;;;;;;7.07;6.20;;;18.10;99.90;;;;;;5032944;28;20209;-76
2022/10/17 12:41:36;;;;;;;12.27;6.70;;;18.10;99.90;;;;;;5034228;28;20219;-77
2022/10/17 12:44:12;;;;;;;7.00;5.70;;;18.20;99.90;;;;;;5036801;28;20602;-75
2022/10/17 12:47:08;;;;;;;10.88;6.15;;;18.10;99.90;;;;;;5017380;28;20205;-76
2022/10/17 12:49:45;;;;;;;9.65;6.07;;;18.20;99.90;;;;;;5017982;28;20218;-77
2022/10/17 12:52:30;;;;;;;9.10;6.90;;;18.10;99.90;;;;;;5041298;28;20657;-77
2022/10/17 12:55:16;;;;;;;8.27;6.63;;;18.20;99.90;;;;;;5036377;28;20189;-77
2022/10/17 12:57:52;;;;;;;9.50;6.30;;;18.20;99.90;;;;;;5037091;28;20604;-76
2022/10/17 13:00:27;;;;;;;8.90;6.90;;;18.20;99.90;;;;;;5026647;28;20236;-76
2022/10/17 13:03:00;;;;;;;8.40;6.43;;;18.20;99.90;;;;;;5039540;28;20212;-76